sensor_id;sensor_type;location;lat;lon;timestamp;temperature;humidity
4701;DHT22;8724;51.272;6.554;2023-04-21T00:01:16;13.00;99.90
4701;DHT22;8724;51.272;6.554;2023-04-21T00:03:45;13.00;99.90
4701;DHT22;8724;51.272;6.554;2023-04-21T00:06:15;13.00;99.90
4701;DHT22;8724;51.272;6.554;2023-04-21T00:08:48;13.00;99.90
4701;DHT22;8724;51.272;6.554;2023-04-21T00:11:17;13.00;99.90
4701;DHT22;8724;51.272;6.554;2023-04-21T00:13:45;13.00;99.90
4701;DHT22;8724;51.272;6.554;2023-04-21T00:16:13;13.00;99.90
4701;DHT22;8724;51.272;6.554;2023-04-21T00:18:42;13.00;99.90
4701;DHT22;8724;51.272;6.554;2023-04-21T00:21:10;13.00;99.90
4701;DHT22;8724;51.272;6.554;2023-04-21T00:23:40;13.00;99.90
4701;DHT22;8724;51.272;6.554;2023-04-21T00:26:08;13.00;99.90
4701;DHT22;8724;51.272;6.554;2023-04-21T00:28:36;13.00;99.90
4701;DHT22;8724;51.272;6.554;2023-04-21T00:31:05;12.90;99.90
4701;DHT22;8724;51.272;6.554;2023-04-21T00:33:33;13.00;99.90
4701;DHT22;8724;51.272;6.554;2023-04-21T00:36:01;13.10;99.90
4701;DHT22;8724;51.272;6.554;2023-04-21T00:38:30;13.00;99.90
4701;DHT22;8724;51.272;6.554;2023-04-21T00:40:59;12.90;99.90
4701;DHT22;8724;51.272;6.554;2023-04-21T00:43:29;12.90;99.90
4701;DHT22;8724;51.272;6.554;2023-04-21T00:45:57;12.90;99.90
4701;DHT22;8724;51.272;6.554;2023-04-21T00:48:26;13.00;99.90
4701;DHT22;8724;51.272;6.554;2023-04-21T00:50:54;12.90;99.90
4701;DHT22;8724;51.272;6.554;2023-04-21T00:53:22;12.90;99.90
4701;DHT22;8724;51.272;6.554;2023-04-21T00:55:50;12.90;99.90
4701;DHT22;8724;51.272;6.554;2023-04-21T00:58:20;12.90;99.90
4701;DHT22;8724;51.272;6.554;2023-04-21T01:00:48;12.90;99.90
4701;DHT22;8724;51.272;6.554;2023-04-21T01:03:17;12.90;99.90
4701;DHT22;8724;51.272;6.554;2023-04-21T01:05:45;13.00;99.90
4701;DHT22;8724;51.272;6.554;2023-04-21T01:08:14;12.90;99.90
4701;DHT22;8724;51.272;6.554;2023-04-21T01:10:43;12.90;99.90
4701;DHT22;8724;51.272;6.554;2023-04-21T01:13:11;12.90;99.90
4701;DHT22;8724;51.272;6.554;2023-04-21T01:15:41;12.90;99.90
4701;DHT22;8724;51.272;6.554;2023-04-21T01:18:09;12.90;99.90
4701;DHT22;8724;51.272;6.554;2023-04-21T01:20:39;12.90;99.90
4701;DHT22;8724;51.272;6.554;2023-04-21T01:23:09;12.90;99.90
4701;DHT22;8724;51.272;6.554;2023-04-21T01:25:37;12.90;99.90
4701;DHT22;8724;51.272;6.554;2023-04-21T01:28:05;12.90;99.90
4701;DHT22;8724;51.272;6.554;2023-04-21T01:30:34;12.90;99.90
4701;DHT22;8724;51.272;6.554;2023-04-21T01:33:02;12.90;99.90
4701;DHT22;8724;51.272;6.554;2023-04-21T01:35:30;12.80;99.90
4701;DHT22;8724;51.272;6.554;2023-04-21T01:37:59;12.80;99.90
4701;DHT22;8724;51.272;6.554;2023-04-21T01:40:29;12.80;99.90
4701;DHT22;8724;51.272;6.554;2023-04-21T01:42:57;12.90;99.90
4701;DHT22;8724;51.272;6.554;2023-04-21T01:45:25;12.80;99.90
4701;DHT22;8724;51.272;6.554;2023-04-21T01:47:54;12.80;99.90
4701;DHT22;8724;51.272;6.554;2023-04-21T01:50:22;12.80;99.90
4701;DHT22;8724;51.272;6.554;2023-04-21T01:52:50;12.90;99.90
4701;DHT22;8724;51.272;6.554;2023-04-21T01:55:19;12.80;99.90
4701;DHT22;8724;51.272;6.554;2023-04-21T01:57:49;12.80;99.90
4701;DHT22;8724;51.272;6.554;2023-04-21T02:00:18;12.80;99.90
4701;DHT22;8724;51.272;6.554;2023-04-21T02:02:47;12.70;99.90
4701;DHT22;8724;51.272;6.554;2023-04-21T02:05:16;12.80;99.90
4701;DHT22;8724;51.272;6.554;2023-04-21T02:07:44;12.80;99.90
4701;DHT22;8724;51.272;6.554;2023-04-21T02:10:13;12.80;99.90
4701;DHT22;8724;51.272;6.554;2023-04-21T02:12:43;12.80;99.90
4701;DHT22;8724;51.272;6.554;2023-04-21T02:15:13;12.80;99.90
4701;DHT22;8724;51.272;6.554;2023-04-21T02:17:41;12.80;99.90
4701;DHT22;8724;51.272;6.554;2023-04-21T02:20:11;12.80;99.90
4701;DHT22;8724;51.272;6.554;2023-04-21T02:22:39;12.80;99.90
4701;DHT22;8724;51.272;6.554;2023-04-21T02:25:08;12.80;99.90
4701;DHT22;8724;51.272;6.554;2023-04-21T02:27:38;12.80;99.90
4701;DHT22;8724;51.272;6.554;2023-04-21T02:30:07;12.80;99.90
4701;DHT22;8724;51.272;6.554;2023-04-21T02:32:37;12.80;99.90
4701;DHT22;8724;51.272;6.554;2023-04-21T02:35:05;12.80;99.90
4701;DHT22;8724;51.272;6.554;2023-04-21T02:37:34;12.80;99.90
4701;DHT22;8724;51.272;6.554;2023-04-21T02:40:03;12.80;99.90
4701;DHT22;8724;51.272;6.554;2023-04-21T02:42:32;12.80;99.90
4701;DHT22;8724;51.272;6.554;2023-04-21T02:45:01;13.10;99.90
4701;DHT22;8724;51.272;6.554;2023-04-21T02:47:29;12.80;99.90
4701;DHT22;8724;51.272;6.554;2023-04-21T02:49:59;12.80;99.90
4701;DHT22;8724;51.272;6.554;2023-04-21T02:52:27;12.80;99.90
4701;DHT22;8724;51.272;6.554;2023-04-21T02:54:55;12.70;99.90
4701;DHT22;8724;51.272;6.554;2023-04-21T02:57:24;12.70;99.90
4701;DHT22;8724;51.272;6.554;2023-04-21T02:59:52;12.70;99.90
4701;DHT22;8724;51.272;6.554;2023-04-21T03:02:21;12.70;99.90
4701;DHT22;8724;51.272;6.554;2023-04-21T03:04:49;12.70;99.90
4701;DHT22;8724;51.272;6.554;2023-04-21T03:07:19;12.70;99.90
4701;DHT22;8724;51.272;6.554;2023-04-21T03:09:47;12.70;99.90
4701;DHT22;8724;51.272;6.554;2023-04-21T03:12:15;12.70;99.90
4701;DHT22;8724;51.272;6.554;2023-04-21T03:14:44;12.70;99.90
4701;DHT22;8724;51.272;6.554;2023-04-21T03:17:12;12.70;99.90
4701;DHT22;8724;51.272;6.554;2023-04-21T03:19:40;12.70;99.90
4701;DHT22;8724;51.272;6.554;2023-04-21T03:22:10;12.70;99.90
4701;DHT22;8724;51.272;6.554;2023-04-21T03:24:40;12.60;99.90
4701;DHT22;8724;51.272;6.554;2023-04-21T03:27:08;12.70;99.90
4701;DHT22;8724;51.272;6.554;2023-04-21T03:29:37;12.80;99.90
4701;DHT22;8724;51.272;6.554;2023-04-21T03:32:05;12.60;99.90
4701;DHT22;8724;51.272;6.554;2023-04-21T03:34:33;12.60;99.90
4701;DHT22;8724;51.272;6.554;2023-04-21T03:37:04;12.60;99.90
4701;DHT22;8724;51.272;6.554;2023-04-21T03:39:32;12.50;99.90
4701;DHT22;8724;51.272;6.554;2023-04-21T03:42:03;12.50;99.90
4701;DHT22;8724;51.272;6.554;2023-04-21T03:44:31;12.50;99.90
4701;DHT22;8724;51.272;6.554;2023-04-21T03:47:01;12.50;99.90
4701;DHT22;8724;51.272;6.554;2023-04-21T03:49:32;12.50;99.90
4701;DHT22;8724;51.272;6.554;2023-04-21T03:52:01;12.50;99.90
4701;DHT22;8724;51.272;6.554;2023-04-21T03:54:29;12.40;99.90
4701;DHT22;8724;51.272;6.554;2023-04-21T03:56:58;12.50;99.90
4701;DHT22;8724;51.272;6.554;2023-04-21T03:59:27;12.40;99.90
4701;DHT22;8724;51.272;6.554;2023-04-21T04:01:56;12.40;99.90
4701;DHT22;8724;51.272;6.554;2023-04-21T04:04:24;12.40;99.90
4701;DHT22;8724;51.272;6.554;2023-04-21T04:06:52;12.30;99.90
4701;DHT22;8724;51.272;6.554;2023-04-21T04:09:21;12.30;99.90
4701;DHT22;8724;51.272;6.554;2023-04-21T04:11:49;12.70;99.90
4701;DHT22;8724;51.272;6.554;2023-04-21T04:14:17;12.40;99.90
4701;DHT22;8724;51.272;6.554;2023-04-21T04:16:47;12.30;99.90
4701;DHT22;8724;51.272;6.554;2023-04-21T04:19:15;12.30;99.90
4701;DHT22;8724;51.272;6.554;2023-04-21T04:21:44;12.30;99.90
4701;DHT22;8724;51.272;6.554;2023-04-21T04:24:15;12.30;99.90
4701;DHT22;8724;51.272;6.554;2023-04-21T04:26:43;12.20;99.90
4701;DHT22;8724;51.272;6.554;2023-04-21T04:29:11;12.20;99.90
4701;DHT22;8724;51.272;6.554;2023-04-21T04:31:42;12.20;99.90
4701;DHT22;8724;51.272;6.554;2023-04-21T04:34:11;12.20;99.90
4701;DHT22;8724;51.272;6.554;2023-04-21T04:36:41;12.20;99.90
4701;DHT22;8724;51.272;6.554;2023-04-21T04:39:09;12.20;99.90
4701;DHT22;8724;51.272;6.554;2023-04-21T04:41:38;12.20;99.90
4701;DHT22;8724;51.272;6.554;2023-04-21T04:44:07;12.20;99.90
4701;DHT22;8724;51.272;6.554;2023-04-21T04:46:37;12.20;99.90
4701;DHT22;8724;51.272;6.554;2023-04-21T04:49:06;12.40;99.90
4701;DHT22;8724;51.272;6.554;2023-04-21T04:51:36;12.10;99.90
4701;DHT22;8724;51.272;6.554;2023-04-21T04:54:04;12.10;99.90
4701;DHT22;8724;51.272;6.554;2023-04-21T04:56:32;12.10;99.90
4701;DHT22;8724;51.272;6.554;2023-04-21T04:59:01;12.30;99.90
4701;DHT22;8724;51.272;6.554;2023-04-21T05:01:29;12.10;99.90
4701;DHT22;8724;51.272;6.554;2023-04-21T05:03:58;12.10;99.90
4701;DHT22;8724;51.272;6.554;2023-04-21T05:06:27;12.10;99.90
4701;DHT22;8724;51.272;6.554;2023-04-21T05:08:57;12.10;99.90
4701;DHT22;8724;51.272;6.554;2023-04-21T05:11:25;12.10;99.90
4701;DHT22;8724;51.272;6.554;2023-04-21T05:13:53;12.10;99.90
4701;DHT22;8724;51.272;6.554;2023-04-21T05:16:21;12.10;99.90
4701;DHT22;8724;51.272;6.554;2023-04-21T05:18:50;12.10;99.90
4701;DHT22;8724;51.272;6.554;2023-04-21T05:21:23;12.10;99.90
4701;DHT22;8724;51.272;6.554;2023-04-21T05:23:53;12.10;99.90
4701;DHT22;8724;51.272;6.554;2023-04-21T05:26:24;12.10;99.90
4701;DHT22;8724;51.272;6.554;2023-04-21T05:28:53;12.30;99.90
4701;DHT22;8724;51.272;6.554;2023-04-21T05:31:22;12.10;99.90
4701;DHT22;8724;51.272;6.554;2023-04-21T05:33:50;12.10;99.90
4701;DHT22;8724;51.272;6.554;2023-04-21T05:36:19;12.10;99.90
4701;DHT22;8724;51.272;6.554;2023-04-21T05:38:47;12.10;99.90
4701;DHT22;8724;51.272;6.554;2023-04-21T05:41:15;12.50;99.90
4701;DHT22;8724;51.272;6.554;2023-04-21T05:43:45;12.20;99.90
4701;DHT22;8724;51.272;6.554;2023-04-21T05:46:14;12.20;99.90
4701;DHT22;8724;51.272;6.554;2023-04-21T05:48:43;12.20;99.90
4701;DHT22;8724;51.272;6.554;2023-04-21T05:51:12;12.20;99.90
4701;DHT22;8724;51.272;6.554;2023-04-21T05:53:42;12.20;99.90
4701;DHT22;8724;51.272;6.554;2023-04-21T05:56:11;12.20;99.90
4701;DHT22;8724;51.272;6.554;2023-04-21T05:58:39;12.20;99.90
4701;DHT22;8724;51.272;6.554;2023-04-21T06:01:09;12.30;99.90
4701;DHT22;8724;51.272;6.554;2023-04-21T06:03:38;12.30;99.90
4701;DHT22;8724;51.272;6.554;2023-04-21T06:06:07;12.30;99.90
4701;DHT22;8724;51.272;6.554;2023-04-21T06:08:37;12.30;99.90
4701;DHT22;8724;51.272;6.554;2023-04-21T06:11:05;12.30;99.90
4701;DHT22;8724;51.272;6.554;2023-04-21T06:13:34;12.30;99.90
4701;DHT22;8724;51.272;6.554;2023-04-21T06:16:05;12.30;99.90
4701;DHT22;8724;51.272;6.554;2023-04-21T06:18:34;12.30;99.90
4701;DHT22;8724;51.272;6.554;2023-04-21T06:21:03;12.30;99.90
4701;DHT22;8724;51.272;6.554;2023-04-21T06:23:32;12.30;99.90
4701;DHT22;8724;51.272;6.554;2023-04-21T06:26:00;12.30;99.90
4701;DHT22;8724;51.272;6.554;2023-04-21T06:28:31;12.30;99.90
4701;DHT22;8724;51.272;6.554;2023-04-21T06:31:00;12.30;99.90
4701;DHT22;8724;51.272;6.554;2023-04-21T06:33:29;12.30;99.90
4701;DHT22;8724;51.272;6.554;2023-04-21T06:35:59;12.30;99.90
4701;DHT22;8724;51.272;6.554;2023-04-21T06:38:27;12.30;99.90
4701;DHT22;8724;51.272;6.554;2023-04-21T06:40:55;12.30;99.90
4701;DHT22;8724;51.272;6.554;2023-04-21T06:43:24;12.30;99.90
4701;DHT22;8724;51.272;6.554;2023-04-21T06:45:52;12.30;99.90
4701;DHT22;8724;51.272;6.554;2023-04-21T06:48:20;12.30;99.90
4701;DHT22;8724;51.272;6.554;2023-04-21T06:50:50;12.30;99.90
4701;DHT22;8724;51.272;6.554;2023-04-21T06:53:20;12.30;99.90
4701;DHT22;8724;51.272;6.554;2023-04-21T06:55:48;12.40;99.90
4701;DHT22;8724;51.272;6.554;2023-04-21T06:58:18;12.40;99.90
4701;DHT22;8724;51.272;6.554;2023-04-21T07:00:47;12.40;99.90
4701;DHT22;8724;51.272;6.554;2023-04-21T07:03:16;12.40;99.90
4701;DHT22;8724;51.272;6.554;2023-04-21T07:05:44;12.40;99.90
4701;DHT22;8724;51.272;6.554;2023-04-21T07:08:13;12.40;99.90
4701;DHT22;8724;51.272;6.554;2023-04-21T07:10:42;12.40;99.90
4701;DHT22;8724;51.272;6.554;2023-04-21T07:13:11;12.40;99.90
4701;DHT22;8724;51.272;6.554;2023-04-21T07:15:39;12.50;99.90
4701;DHT22;8724;51.272;6.554;2023-04-21T07:18:08;12.50;99.90
4701;DHT22;8724;51.272;6.554;2023-04-21T07:20:36;12.50;99.90
4701;DHT22;8724;51.272;6.554;2023-04-21T07:23:04;12.50;99.90
4701;DHT22;8724;51.272;6.554;2023-04-21T07:25:33;12.50;99.90
4701;DHT22;8724;51.272;6.554;2023-04-21T07:28:02;12.50;99.90
4701;DHT22;8724;51.272;6.554;2023-04-21T07:30:31;12.50;99.90
4701;DHT22;8724;51.272;6.554;2023-04-21T07:32:59;12.50;99.90
4701;DHT22;8724;51.272;6.554;2023-04-21T07:35:28;12.50;99.90
4701;DHT22;8724;51.272;6.554;2023-04-21T07:37:56;12.60;99.90
4701;DHT22;8724;51.272;6.554;2023-04-21T07:40:25;12.60;99.90
4701;DHT22;8724;51.272;6.554;2023-04-21T07:42:53;12.60;99.90
4701;DHT22;8724;51.272;6.554;2023-04-21T07:45:23;12.60;99.90
4701;DHT22;8724;51.272;6.554;2023-04-21T07:47:52;12.60;99.90
4701;DHT22;8724;51.272;6.554;2023-04-21T07:50:20;12.70;99.90
4701;DHT22;8724;51.272;6.554;2023-04-21T07:52:48;12.70;99.90
4701;DHT22;8724;51.272;6.554;2023-04-21T07:55:17;12.80;99.90
4701;DHT22;8724;51.272;6.554;2023-04-21T07:57:45;12.70;99.90
4701;DHT22;8724;51.272;6.554;2023-04-21T08:00:14;12.70;99.90
4701;DHT22;8724;51.272;6.554;2023-04-21T08:02:44;12.70;99.90
4701;DHT22;8724;51.272;6.554;2023-04-21T08:05:12;12.70;99.90
4701;DHT22;8724;51.272;6.554;2023-04-21T08:07:41;12.80;99.90
4701;DHT22;8724;51.272;6.554;2023-04-21T08:10:09;12.80;99.90
4701;DHT22;8724;51.272;6.554;2023-04-21T08:12:38;12.80;99.90
4701;DHT22;8724;51.272;6.554;2023-04-21T08:15:07;12.80;99.90
4701;DHT22;8724;51.272;6.554;2023-04-21T08:17:35;12.90;99.90
4701;DHT22;8724;51.272;6.554;2023-04-21T08:20:06;12.80;99.90
4701;DHT22;8724;51.272;6.554;2023-04-21T08:22:35;12.80;99.90
4701;DHT22;8724;51.272;6.554;2023-04-21T08:25:04;12.80;99.90
4701;DHT22;8724;51.272;6.554;2023-04-21T08:27:33;12.90;99.90
4701;DHT22;8724;51.272;6.554;2023-04-21T08:30:02;12.90;99.90
4701;DHT22;8724;51.272;6.554;2023-04-21T08:32:31;12.90;99.90
4701;DHT22;8724;51.272;6.554;2023-04-21T08:34:59;12.90;99.90
4701;DHT22;8724;51.272;6.554;2023-04-21T08:37:29;12.90;99.90
4701;DHT22;8724;51.272;6.554;2023-04-21T08:39:57;12.90;99.90
4701;DHT22;8724;51.272;6.554;2023-04-21T08:42:25;13.00;99.90
4701;DHT22;8724;51.272;6.554;2023-04-21T08:44:54;13.00;99.90
4701;DHT22;8724;51.272;6.554;2023-04-21T08:47:23;13.00;99.90
4701;DHT22;8724;51.272;6.554;2023-04-21T08:49:52;13.00;99.90
4701;DHT22;8724;51.272;6.554;2023-04-21T08:52:21;13.00;99.90
4701;DHT22;8724;51.272;6.554;2023-04-21T08:54:50;13.00;99.90
4701;DHT22;8724;51.272;6.554;2023-04-21T08:57:21;13.10;99.90
4701;DHT22;8724;51.272;6.554;2023-04-21T08:59:49;13.10;99.90
4701;DHT22;8724;51.272;6.554;2023-04-21T09:02:18;13.10;99.90
4701;DHT22;8724;51.272;6.554;2023-04-21T09:04:50;13.10;99.90
4701;DHT22;8724;51.272;6.554;2023-04-21T09:07:33;13.10;99.90
4701;DHT22;8724;51.272;6.554;2023-04-21T09:10:04;13.10;99.90
4701;DHT22;8724;51.272;6.554;2023-04-21T09:12:33;13.10;99.90
4701;DHT22;8724;51.272;6.554;2023-04-21T09:15:03;13.10;99.90
4701;DHT22;8724;51.272;6.554;2023-04-21T09:17:32;13.20;99.90
4701;DHT22;8724;51.272;6.554;2023-04-21T09:20:16;13.20;99.90
4701;DHT22;8724;51.272;6.554;2023-04-21T09:22:47;13.20;99.90
4701;DHT22;8724;51.272;6.554;2023-04-21T09:25:19;13.20;99.90
4701;DHT22;8724;51.272;6.554;2023-04-21T09:27:47;13.20;99.90
4701;DHT22;8724;51.272;6.554;2023-04-21T09:30:18;13.20;99.90
4701;DHT22;8724;51.272;6.554;2023-04-21T09:32:46;13.30;99.90
4701;DHT22;8724;51.272;6.554;2023-04-21T09:35:15;13.20;99.90
4701;DHT22;8724;51.272;6.554;2023-04-21T09:37:43;13.30;99.90
4701;DHT22;8724;51.272;6.554;2023-04-21T09:40:12;13.30;99.90
4701;DHT22;8724;51.272;6.554;2023-04-21T09:42:42;13.30;99.90
4701;DHT22;8724;51.272;6.554;2023-04-21T09:45:11;13.30;99.90
4701;DHT22;8724;51.272;6.554;2023-04-21T09:47:44;13.50;99.90
4701;DHT22;8724;51.272;6.554;2023-04-21T09:50:16;13.40;99.90
4701;DHT22;8724;51.272;6.554;2023-04-21T09:53:12;13.40;99.90
4701;DHT22;8724;51.272;6.554;2023-04-21T09:55:42;13.50;99.90
4701;DHT22;8724;51.272;6.554;2023-04-21T09:58:21;13.50;99.90
4701;DHT22;8724;51.272;6.554;2023-04-21T10:00:55;13.50;99.90
4701;DHT22;8724;51.272;6.554;2023-04-21T10:03:26;13.50;99.90
4701;DHT22;8724;51.272;6.554;2023-04-21T10:05:56;13.50;99.90
4701;DHT22;8724;51.272;6.554;2023-04-21T10:08:24;13.50;99.90
4701;DHT22;8724;51.272;6.554;2023-04-21T10:10:52;13.50;99.90
4701;DHT22;8724;51.272;6.554;2023-04-21T10:13:24;13.60;99.90
4701;DHT22;8724;51.272;6.554;2023-04-21T10:16:01;13.60;99.90
4701;DHT22;8724;51.272;6.554;2023-04-21T10:18:30;13.60;99.90
4701;DHT22;8724;51.272;6.554;2023-04-21T10:21:03;13.70;99.90
4701;DHT22;8724;51.272;6.554;2023-04-21T10:23:37;13.70;99.90
4701;DHT22;8724;51.272;6.554;2023-04-21T10:26:09;13.70;99.90
4701;DHT22;8724;51.272;6.554;2023-04-21T10:28:47;13.70;99.90
4701;DHT22;8724;51.272;6.554;2023-04-21T10:31:17;13.70;99.90
4701;DHT22;8724;51.272;6.554;2023-04-21T10:34:18;13.70;99.90
4701;DHT22;8724;51.272;6.554;2023-04-21T10:37:12;13.80;99.90
4701;DHT22;8724;51.272;6.554;2023-04-21T10:39:54;13.80;99.90
4701;DHT22;8724;51.272;6.554;2023-04-21T10:42:28;13.80;99.90
4701;DHT22;8724;51.272;6.554;2023-04-21T10:45:10;13.80;99.90
4701;DHT22;8724;51.272;6.554;2023-04-21T10:47:42;13.90;99.90
4701;DHT22;8724;51.272;6.554;2023-04-21T10:50:13;14.10;99.90
4701;DHT22;8724;51.272;6.554;2023-04-21T10:52:48;13.90;99.90
4701;DHT22;8724;51.272;6.554;2023-04-21T10:55:19;14.00;99.90
4701;DHT22;8724;51.272;6.554;2023-04-21T10:57:48;14.00;99.90
4701;DHT22;8724;51.272;6.554;2023-04-21T11:00:20;14.00;99.90
4701;DHT22;8724;51.272;6.554;2023-04-21T11:02:56;14.00;99.90
4701;DHT22;8724;51.272;6.554;2023-04-21T11:05:30;14.00;99.90
4701;DHT22;8724;51.272;6.554;2023-04-21T11:08:11;14.00;99.90
4701;DHT22;8724;51.272;6.554;2023-04-21T11:10:52;14.10;99.90
4701;DHT22;8724;51.272;6.554;2023-04-21T11:13:22;14.10;99.90
4701;DHT22;8724;51.272;6.554;2023-04-21T11:16:03;14.10;99.90
4701;DHT22;8724;51.272;6.554;2023-04-21T11:18:40;14.20;99.90
4701;DHT22;8724;51.272;6.554;2023-04-21T11:21:13;14.20;99.90
4701;DHT22;8724;51.272;6.554;2023-04-21T11:23:50;14.20;99.90
4701;DHT22;8724;51.272;6.554;2023-04-21T11:26:29;14.20;99.90
4701;DHT22;8724;51.272;6.554;2023-04-21T11:29:03;14.30;99.90
4701;DHT22;8724;51.272;6.554;2023-04-21T11:31:33;14.30;99.90
4701;DHT22;8724;51.272;6.554;2023-04-21T11:34:04;14.30;99.90
4701;DHT22;8724;51.272;6.554;2023-04-21T11:36:33;14.30;99.90
4701;DHT22;8724;51.272;6.554;2023-04-21T11:39:04;14.30;99.90
4701;DHT22;8724;51.272;6.554;2023-04-21T11:41:38;14.30;99.90
4701;DHT22;8724;51.272;6.554;2023-04-21T11:44:08;14.30;99.90
4701;DHT22;8724;51.272;6.554;2023-04-21T11:46:43;14.40;99.90
4701;DHT22;8724;51.272;6.554;2023-04-21T11:49:14;14.40;99.90
4701;DHT22;8724;51.272;6.554;2023-04-21T11:51:43;14.50;99.90
4701;DHT22;8724;51.272;6.554;2023-04-21T11:54:13;14.50;99.90
4701;DHT22;8724;51.272;6.554;2023-04-21T11:56:46;14.50;99.90
4701;DHT22;8724;51.272;6.554;2023-04-21T11:59:16;14.60;99.90
4701;DHT22;8724;51.272;6.554;2023-04-21T12:01:48;14.60;99.90
4701;DHT22;8724;51.272;6.554;2023-04-21T12:04:17;14.60;99.90
4701;DHT22;8724;51.272;6.554;2023-04-21T12:06:55;14.70;99.90
4701;DHT22;8724;51.272;6.554;2023-04-21T12:09:24;14.70;99.90
4701;DHT22;8724;51.272;6.554;2023-04-21T12:11:53;14.70;99.90
4701;DHT22;8724;51.272;6.554;2023-04-21T12:14:24;14.80;99.90
4701;DHT22;8724;51.272;6.554;2023-04-21T12:16:57;14.80;99.90
4701;DHT22;8724;51.272;6.554;2023-04-21T12:19:34;14.80;99.90
4701;DHT22;8724;51.272;6.554;2023-04-21T12:22:06;14.80;99.90
4701;DHT22;8724;51.272;6.554;2023-04-21T12:24:35;14.90;99.90
4701;DHT22;8724;51.272;6.554;2023-04-21T12:27:05;14.90;99.90
4701;DHT22;8724;51.272;6.554;2023-04-21T12:29:33;14.90;99.90
4701;DHT22;8724;51.272;6.554;2023-04-21T12:32:05;14.90;99.90
4701;DHT22;8724;51.272;6.554;2023-04-21T12:34:33;15.00;99.90
4701;DHT22;8724;51.272;6.554;2023-04-21T12:37:02;14.90;99.90
4701;DHT22;8724;51.272;6.554;2023-04-21T12:39:32;15.00;99.90
4701;DHT22;8724;51.272;6.554;2023-04-21T12:42:00;15.00;99.90
4701;DHT22;8724;51.272;6.554;2023-04-21T12:44:29;15.00;99.90
4701;DHT22;8724;51.272;6.554;2023-04-21T12:46:57;15.10;99.90
4701;DHT22;8724;51.272;6.554;2023-04-21T12:49:27;15.10;99.90
4701;DHT22;8724;51.272;6.554;2023-04-21T12:51:55;15.10;99.90
4701;DHT22;8724;51.272;6.554;2023-04-21T12:54:24;15.20;99.90
4701;DHT22;8724;51.272;6.554;2023-04-21T12:56:52;15.20;99.90
4701;DHT22;8724;51.272;6.554;2023-04-21T12:59:21;15.30;99.90
4701;DHT22;8724;51.272;6.554;2023-04-21T13:01:49;15.30;99.90
4701;DHT22;8724;51.272;6.554;2023-04-21T13:04:18;15.30;99.90
4701;DHT22;8724;51.272;6.554;2023-04-21T13:06:48;15.40;99.90
4701;DHT22;8724;51.272;6.554;2023-04-21T13:09:16;15.50;99.90
4701;DHT22;8724;51.272;6.554;2023-04-21T13:11:45;15.50;99.90
4701;DHT22;8724;51.272;6.554;2023-04-21T13:14:13;15.60;99.90
4701;DHT22;8724;51.272;6.554;2023-04-21T13:16:42;15.60;99.90
4701;DHT22;8724;51.272;6.554;2023-04-21T13:19:11;15.60;99.90
4701;DHT22;8724;51.272;6.554;2023-04-21T13:21:39;15.70;99.90
4701;DHT22;8724;51.272;6.554;2023-04-21T13:24:09;15.70;99.90
4701;DHT22;8724;51.272;6.554;2023-04-21T13:26:41;15.80;99.90
4701;DHT22;8724;51.272;6.554;2023-04-21T13:29:09;15.90;99.90
4701;DHT22;8724;51.272;6.554;2023-04-21T13:31:37;15.90;99.90
4701;DHT22;8724;51.272;6.554;2023-04-21T13:34:06;16.00;99.90
4701;DHT22;8724;51.272;6.554;2023-04-21T13:36:34;16.00;99.90
4701;DHT22;8724;51.272;6.554;2023-04-21T13:39:03;16.00;99.90
4701;DHT22;8724;51.272;6.554;2023-04-21T13:41:36;16.00;99.90
4701;DHT22;8724;51.272;6.554;2023-04-21T13:44:04;16.10;99.90
4701;DHT22;8724;51.272;6.554;2023-04-21T13:46:32;16.10;99.90
4701;DHT22;8724;51.272;6.554;2023-04-21T13:49:01;16.10;99.90
4701;DHT22;8724;51.272;6.554;2023-04-21T13:51:29;16.10;99.90
4701;DHT22;8724;51.272;6.554;2023-04-21T13:53:58;16.20;99.90
4701;DHT22;8724;51.272;6.554;2023-04-21T13:56:26;16.30;99.90
4701;DHT22;8724;51.272;6.554;2023-04-21T13:58:57;16.20;99.90
4701;DHT22;8724;51.272;6.554;2023-04-21T14:01:26;16.30;99.90
4701;DHT22;8724;51.272;6.554;2023-04-21T14:03:54;16.40;99.90
4701;DHT22;8724;51.272;6.554;2023-04-21T14:06:24;16.40;99.90
4701;DHT22;8724;51.272;6.554;2023-04-21T14:08:52;16.40;99.90
4701;DHT22;8724;51.272;6.554;2023-04-21T14:11:20;16.50;99.90
4701;DHT22;8724;51.272;6.554;2023-04-21T14:13:49;16.50;99.90
4701;DHT22;8724;51.272;6.554;2023-04-21T14:16:36;16.50;99.90
4701;DHT22;8724;51.272;6.554;2023-04-21T14:19:05;16.60;99.90
4701;DHT22;8724;51.272;6.554;2023-04-21T14:21:33;16.60;99.90
4701;DHT22;8724;51.272;6.554;2023-04-21T14:24:02;16.80;99.90
4701;DHT22;8724;51.272;6.554;2023-04-21T14:26:31;16.70;99.90
4701;DHT22;8724;51.272;6.554;2023-04-21T14:28:59;16.80;99.90
4701;DHT22;8724;51.272;6.554;2023-04-21T14:31:28;16.80;99.90
4701;DHT22;8724;51.272;6.554;2023-04-21T14:33:57;16.90;99.90
4701;DHT22;8724;51.272;6.554;2023-04-21T14:36:26;16.90;99.90
4701;DHT22;8724;51.272;6.554;2023-04-21T14:38:54;16.90;99.90
4701;DHT22;8724;51.272;6.554;2023-04-21T14:41:23;16.90;99.90
4701;DHT22;8724;51.272;6.554;2023-04-21T14:43:51;16.90;99.90
4701;DHT22;8724;51.272;6.554;2023-04-21T14:46:22;16.90;99.90
4701;DHT22;8724;51.272;6.554;2023-04-21T14:48:50;16.90;99.90
4701;DHT22;8724;51.272;6.554;2023-04-21T14:51:20;16.90;99.90
4701;DHT22;8724;51.272;6.554;2023-04-21T14:53:49;17.00;99.90
4701;DHT22;8724;51.272;6.554;2023-04-21T14:56:17;17.00;99.90
4701;DHT22;8724;51.272;6.554;2023-04-21T14:58:45;17.10;99.90
4701;DHT22;8724;51.272;6.554;2023-04-21T15:01:13;17.10;99.90
4701;DHT22;8724;51.272;6.554;2023-04-21T15:03:42;17.20;99.90
4701;DHT22;8724;51.272;6.554;2023-04-21T15:06:11;17.30;99.90
4701;DHT22;8724;51.272;6.554;2023-04-21T15:08:40;17.30;99.90
4701;DHT22;8724;51.272;6.554;2023-04-21T15:11:09;17.40;99.90
4701;DHT22;8724;51.272;6.554;2023-04-21T15:13:37;17.40;99.90
4701;DHT22;8724;51.272;6.554;2023-04-21T15:16:05;17.40;99.90
4701;DHT22;8724;51.272;6.554;2023-04-21T15:18:34;17.40;99.90
4701;DHT22;8724;51.272;6.554;2023-04-21T15:21:02;17.50;99.90
4701;DHT22;8724;51.272;6.554;2023-04-21T15:23:31;17.60;99.90
4701;DHT22;8724;51.272;6.554;2023-04-21T15:26:01;17.60;99.90
4701;DHT22;8724;51.272;6.554;2023-04-21T15:28:30;17.70;99.90
4701;DHT22;8724;51.272;6.554;2023-04-21T15:30:58;17.70;99.90
4701;DHT22;8724;51.272;6.554;2023-04-21T15:33:27;17.70;99.90
4701;DHT22;8724;51.272;6.554;2023-04-21T15:35:55;17.70;99.90
4701;DHT22;8724;51.272;6.554;2023-04-21T15:38:23;17.80;99.90
4701;DHT22;8724;51.272;6.554;2023-04-21T15:40:52;17.80;99.90
4701;DHT22;8724;51.272;6.554;2023-04-21T15:43:26;17.80;99.90
4701;DHT22;8724;51.272;6.554;2023-04-21T15:45:55;17.90;99.90
4701;DHT22;8724;51.272;6.554;2023-04-21T15:48:23;17.90;99.90
4701;DHT22;8724;51.272;6.554;2023-04-21T15:50:52;17.90;99.90
4701;DHT22;8724;51.272;6.554;2023-04-21T15:53:20;17.80;99.90
4701;DHT22;8724;51.272;6.554;2023-04-21T15:55:48;17.90;99.90
4701;DHT22;8724;51.272;6.554;2023-04-21T15:58:18;17.90;99.90
4701;DHT22;8724;51.272;6.554;2023-04-21T16:00:49;18.00;99.90
4701;DHT22;8724;51.272;6.554;2023-04-21T16:03:18;18.00;99.90
4701;DHT22;8724;51.272;6.554;2023-04-21T16:05:47;18.10;99.90
4701;DHT22;8724;51.272;6.554;2023-04-21T16:08:16;18.10;99.90
4701;DHT22;8724;51.272;6.554;2023-04-21T16:10:44;18.20;99.90
4701;DHT22;8724;51.272;6.554;2023-04-21T16:13:13;18.30;99.90
4701;DHT22;8724;51.272;6.554;2023-04-21T16:15:41;18.30;99.90
4701;DHT22;8724;51.272;6.554;2023-04-21T16:18:11;18.20;99.90